sensor_id;sensor_type;location;lat;lon;timestamp;P1;durP1;ratioP1;P2;durP2;ratioP2
20928;SDS011;21895;47.072;15.132;2024-03-22T00:02:09;1.83;;;1.30;;
20928;SDS011;21895;47.072;15.132;2024-03-22T00:04:39;3.67;;;1.43;;
20928;SDS011;21895;47.072;15.132;2024-03-22T00:07:05;3.00;;;1.50;;
20928;SDS011;21895;47.072;15.132;2024-03-22T00:09:32;5.60;;;1.87;;
20928;SDS011;21895;47.072;15.132;2024-03-22T00:11:59;4.57;;;1.43;;
20928;SDS011;21895;47.072;15.132;2024-03-22T00:14:25;5.93;;;1.77;;
20928;SDS011;21895;47.072;15.132;2024-03-22T00:16:52;7.03;;;2.10;;
20928;SDS011;21895;47.072;15.132;2024-03-22T00:19:18;1.37;;;0.77;;
20928;SDS011;21895;47.072;15.132;2024-03-22T00:21:45;3.57;;;0.97;;
20928;SDS011;21895;47.072;15.132;2024-03-22T00:24:11;4.00;;;0.80;;
20928;SDS011;21895;47.072;15.132;2024-03-22T00:26:38;2.07;;;1.10;;
20928;SDS011;21895;47.072;15.132;2024-03-22T00:29:04;2.00;;;0.93;;
20928;SDS011;21895;47.072;15.132;2024-03-22T00:31:31;5.37;;;0.80;;
20928;SDS011;21895;47.072;15.132;2024-03-22T00:33:58;0.90;;;0.67;;
20928;SDS011;21895;47.072;15.132;2024-03-22T00:36:24;0.90;;;0.77;;
20928;SDS011;21895;47.072;15.132;2024-03-22T00:38:51;4.53;;;1.30;;
20928;SDS011;21895;47.072;15.132;2024-03-22T00:41:17;4.50;;;1.20;;
20928;SDS011;21895;47.072;15.132;2024-03-22T00:43:44;3.00;;;1.10;;
20928;SDS011;21895;47.072;15.132;2024-03-22T00:46:10;3.33;;;1.40;;
20928;SDS011;21895;47.072;15.132;2024-03-22T00:48:37;1.17;;;0.90;;
20928;SDS011;21895;47.072;15.132;2024-03-22T00:51:04;2.07;;;1.17;;
20928;SDS011;21895;47.072;15.132;2024-03-22T00:53:30;1.60;;;0.93;;
20928;SDS011;21895;47.072;15.132;2024-03-22T00:55:57;0.90;;;0.70;;
20928;SDS011;21895;47.072;15.132;2024-03-22T00:58:27;6.90;;;0.60;;
20928;SDS011;21895;47.072;15.132;2024-03-22T01:00:54;1.23;;;0.70;;
20928;SDS011;21895;47.072;15.132;2024-03-22T01:03:24;0.97;;;0.60;;
20928;SDS011;21895;47.072;15.132;2024-03-22T01:05:50;2.83;;;0.70;;
20928;SDS011;21895;47.072;15.132;2024-03-22T01:08:17;1.30;;;0.90;;
20928;SDS011;21895;47.072;15.132;2024-03-22T01:10:43;1.17;;;0.70;;
20928;SDS011;21895;47.072;15.132;2024-03-22T01:13:10;1.90;;;1.17;;
20928;SDS011;21895;47.072;15.132;2024-03-22T01:15:36;4.97;;;1.33;;
20928;SDS011;21895;47.072;15.132;2024-03-22T01:18:03;2.53;;;1.60;;
20928;SDS011;21895;47.072;15.132;2024-03-22T01:20:31;2.27;;;1.20;;
20928;SDS011;21895;47.072;15.132;2024-03-22T01:22:59;2.10;;;1.03;;
20928;SDS011;21895;47.072;15.132;2024-03-22T01:25:29;0.90;;;0.50;;
20928;SDS011;21895;47.072;15.132;2024-03-22T01:27:56;1.53;;;0.80;;
20928;SDS011;21895;47.072;15.132;2024-03-22T01:30:23;1.93;;;0.77;;
20928;SDS011;21895;47.072;15.132;2024-03-22T01:32:54;2.83;;;1.10;;
20928;SDS011;21895;47.072;15.132;2024-03-22T01:35:21;1.73;;;1.00;;
20928;SDS011;21895;47.072;15.132;2024-03-22T01:37:48;2.00;;;1.00;;
20928;SDS011;21895;47.072;15.132;2024-03-22T01:40:14;0.90;;;0.80;;
20928;SDS011;21895;47.072;15.132;2024-03-22T01:42:41;1.27;;;0.70;;
20928;SDS011;21895;47.072;15.132;2024-03-22T01:45:07;2.07;;;1.23;;
20928;SDS011;21895;47.072;15.132;2024-03-22T01:47:34;1.40;;;0.90;;
20928;SDS011;21895;47.072;15.132;2024-03-22T01:50:01;1.70;;;0.80;;
20928;SDS011;21895;47.072;15.132;2024-03-22T01:52:28;2.70;;;1.20;;
20928;SDS011;21895;47.072;15.132;2024-03-22T01:54:55;3.37;;;1.13;;
20928;SDS011;21895;47.072;15.132;2024-03-22T01:57:21;1.80;;;1.13;;
20928;SDS011;21895;47.072;15.132;2024-03-22T01:59:49;4.57;;;1.53;;
20928;SDS011;21895;47.072;15.132;2024-03-22T02:02:19;4.43;;;1.43;;
20928;SDS011;21895;47.072;15.132;2024-03-22T02:04:46;1.67;;;0.90;;
20928;SDS011;21895;47.072;15.132;2024-03-22T02:07:16;2.60;;;1.30;;
20928;SDS011;21895;47.072;15.132;2024-03-22T02:09:43;3.93;;;1.33;;
20928;SDS011;21895;47.072;15.132;2024-03-22T02:12:09;1.73;;;0.90;;
20928;SDS011;21895;47.072;15.132;2024-03-22T02:14:37;3.13;;;1.50;;
20928;SDS011;21895;47.072;15.132;2024-03-22T02:17:06;1.27;;;1.10;;
20928;SDS011;21895;47.072;15.132;2024-03-22T02:19:33;1.47;;;0.80;;
20928;SDS011;21895;47.072;15.132;2024-03-22T02:22:00;1.37;;;0.93;;
20928;SDS011;21895;47.072;15.132;2024-03-22T02:24:26;2.67;;;1.10;;
20928;SDS011;21895;47.072;15.132;2024-03-22T02:26:53;1.73;;;1.07;;
20928;SDS011;21895;47.072;15.132;2024-03-22T02:29:20;1.60;;;0.97;;
20928;SDS011;21895;47.072;15.132;2024-03-22T02:31:46;3.47;;;1.07;;
20928;SDS011;21895;47.072;15.132;2024-03-22T02:34:13;2.30;;;0.87;;
20928;SDS011;21895;47.072;15.132;2024-03-22T02:36:39;2.30;;;0.93;;
20928;SDS011;21895;47.072;15.132;2024-03-22T02:39:06;3.53;;;1.50;;
20928;SDS011;21895;47.072;15.132;2024-03-22T02:41:32;1.77;;;1.10;;
20928;SDS011;21895;47.072;15.132;2024-03-22T02:43:59;5.10;;;1.23;;
20928;SDS011;21895;47.072;15.132;2024-03-22T02:46:25;2.40;;;1.17;;
20928;SDS011;21895;47.072;15.132;2024-03-22T02:48:52;7.97;;;1.63;;
20928;SDS011;21895;47.072;15.132;2024-03-22T02:51:19;1.77;;;1.10;;
20928;SDS011;21895;47.072;15.132;2024-03-22T02:53:45;4.73;;;1.73;;
20928;SDS011;21895;47.072;15.132;2024-03-22T02:56:12;2.07;;;1.20;;
20928;SDS011;21895;47.072;15.132;2024-03-22T02:58:38;2.73;;;1.10;;
20928;SDS011;21895;47.072;15.132;2024-03-22T03:01:06;3.07;;;1.50;;
20928;SDS011;21895;47.072;15.132;2024-03-22T03:03:32;8.43;;;1.67;;
20928;SDS011;21895;47.072;15.132;2024-03-22T03:05:59;2.90;;;1.47;;
20928;SDS011;21895;47.072;15.132;2024-03-22T03:08:25;2.47;;;1.40;;
20928;SDS011;21895;47.072;15.132;2024-03-22T03:10:52;3.63;;;1.30;;
20928;SDS011;21895;47.072;15.132;2024-03-22T03:13:19;2.47;;;1.27;;
20928;SDS011;21895;47.072;15.132;2024-03-22T03:15:45;1.90;;;1.10;;
20928;SDS011;21895;47.072;15.132;2024-03-22T03:18:12;6.30;;;2.50;;
20928;SDS011;21895;47.072;15.132;2024-03-22T03:20:38;3.37;;;1.60;;
20928;SDS011;21895;47.072;15.132;2024-03-22T03:23:05;8.60;;;1.07;;
20928;SDS011;21895;47.072;15.132;2024-03-22T03:25:32;1.50;;;1.20;;
20928;SDS011;21895;47.072;15.132;2024-03-22T03:27:58;2.63;;;1.40;;
20928;SDS011;21895;47.072;15.132;2024-03-22T03:30:25;3.17;;;1.17;;
20928;SDS011;21895;47.072;15.132;2024-03-22T03:32:51;2.83;;;1.20;;
20928;SDS011;21895;47.072;15.132;2024-03-22T03:35:18;2.53;;;1.30;;
20928;SDS011;21895;47.072;15.132;2024-03-22T03:37:44;3.17;;;1.40;;
20928;SDS011;21895;47.072;15.132;2024-03-22T03:40:11;1.20;;;1.00;;
20928;SDS011;21895;47.072;15.132;2024-03-22T03:42:38;1.47;;;1.13;;
20928;SDS011;21895;47.072;15.132;2024-03-22T03:45:05;2.80;;;1.27;;
20928;SDS011;21895;47.072;15.132;2024-03-22T03:47:32;2.33;;;1.40;;
20928;SDS011;21895;47.072;15.132;2024-03-22T03:49:59;1.57;;;0.70;;
20928;SDS011;21895;47.072;15.132;2024-03-22T03:52:26;5.97;;;1.20;;
20928;SDS011;21895;47.072;15.132;2024-03-22T03:54:52;3.23;;;1.60;;
20928;SDS011;21895;47.072;15.132;2024-03-22T03:57:19;1.40;;;1.00;;
20928;SDS011;21895;47.072;15.132;2024-03-22T03:59:45;1.77;;;1.07;;
20928;SDS011;21895;47.072;15.132;2024-03-22T04:02:12;3.17;;;1.43;;
20928;SDS011;21895;47.072;15.132;2024-03-22T04:04:39;1.80;;;1.10;;
20928;SDS011;21895;47.072;15.132;2024-03-22T04:07:05;1.90;;;1.07;;
20928;SDS011;21895;47.072;15.132;2024-03-22T04:09:32;1.87;;;1.20;;
20928;SDS011;21895;47.072;15.132;2024-03-22T04:11:59;1.57;;;1.03;;
20928;SDS011;21895;47.072;15.132;2024-03-22T04:14:26;2.20;;;1.10;;
20928;SDS011;21895;47.072;15.132;2024-03-22T04:16:53;1.70;;;1.03;;
20928;SDS011;21895;47.072;15.132;2024-03-22T04:19:21;1.33;;;1.20;;
20928;SDS011;21895;47.072;15.132;2024-03-22T04:21:48;2.87;;;1.23;;
20928;SDS011;21895;47.072;15.132;2024-03-22T04:24:16;2.53;;;1.10;;
20928;SDS011;21895;47.072;15.132;2024-03-22T04:26:42;1.60;;;1.07;;
20928;SDS011;21895;47.072;15.132;2024-03-22T04:29:09;2.53;;;0.97;;
20928;SDS011;21895;47.072;15.132;2024-03-22T04:31:35;2.90;;;1.17;;
20928;SDS011;21895;47.072;15.132;2024-03-22T04:34:02;1.57;;;1.10;;
20928;SDS011;21895;47.072;15.132;2024-03-22T04:36:30;3.40;;;1.47;;
20928;SDS011;21895;47.072;15.132;2024-03-22T04:38:59;1.93;;;1.20;;
20928;SDS011;21895;47.072;15.132;2024-03-22T04:41:26;2.87;;;1.37;;
20928;SDS011;21895;47.072;15.132;2024-03-22T04:43:52;1.50;;;1.03;;
20928;SDS011;21895;47.072;15.132;2024-03-22T04:46:19;2.37;;;1.00;;
20928;SDS011;21895;47.072;15.132;2024-03-22T04:48:45;1.20;;;0.83;;
20928;SDS011;21895;47.072;15.132;2024-03-22T04:51:12;2.23;;;1.43;;
20928;SDS011;21895;47.072;15.132;2024-03-22T04:53:38;1.43;;;1.10;;
20928;SDS011;21895;47.072;15.132;2024-03-22T04:56:05;1.07;;;0.87;;
20928;SDS011;21895;47.072;15.132;2024-03-22T04:58:33;3.60;;;1.30;;
20928;SDS011;21895;47.072;15.132;2024-03-22T05:00:59;1.50;;;1.00;;
20928;SDS011;21895;47.072;15.132;2024-03-22T05:03:26;2.33;;;1.07;;
20928;SDS011;21895;47.072;15.132;2024-03-22T05:05:52;1.57;;;1.17;;
20928;SDS011;21895;47.072;15.132;2024-03-22T05:08:20;2.63;;;1.13;;
20928;SDS011;21895;47.072;15.132;2024-03-22T05:10:46;1.73;;;1.20;;
20928;SDS011;21895;47.072;15.132;2024-03-22T05:13:13;1.27;;;1.10;;
20928;SDS011;21895;47.072;15.132;2024-03-22T05:15:41;2.27;;;1.30;;
20928;SDS011;21895;47.072;15.132;2024-03-22T05:18:07;1.67;;;0.80;;
20928;SDS011;21895;47.072;15.132;2024-03-22T05:20:34;2.70;;;1.30;;
20928;SDS011;21895;47.072;15.132;2024-03-22T05:23:00;2.30;;;1.10;;
20928;SDS011;21895;47.072;15.132;2024-03-22T05:25:27;2.07;;;1.37;;
20928;SDS011;21895;47.072;15.132;2024-03-22T05:27:55;1.80;;;1.30;;
20928;SDS011;21895;47.072;15.132;2024-03-22T05:30:21;1.00;;;0.87;;
20928;SDS011;21895;47.072;15.132;2024-03-22T05:32:48;2.50;;;1.30;;
20928;SDS011;21895;47.072;15.132;2024-03-22T05:35:15;1.30;;;0.87;;
20928;SDS011;21895;47.072;15.132;2024-03-22T05:37:42;2.63;;;1.47;;
20928;SDS011;21895;47.072;15.132;2024-03-22T05:40:09;3.03;;;1.27;;
20928;SDS011;21895;47.072;15.132;2024-03-22T05:42:36;2.73;;;1.10;;
20928;SDS011;21895;47.072;15.132;2024-03-22T05:45:03;2.90;;;1.30;;
20928;SDS011;21895;47.072;15.132;2024-03-22T05:47:30;15.47;;;1.90;;
20928;SDS011;21895;47.072;15.132;2024-03-22T05:50:04;6.23;;;1.63;;
20928;SDS011;21895;47.072;15.132;2024-03-22T05:52:33;2.97;;;1.53;;
20928;SDS011;21895;47.072;15.132;2024-03-22T05:55:00;10.27;;;1.33;;
20928;SDS011;21895;47.072;15.132;2024-03-22T05:57:27;3.47;;;1.57;;
20928;SDS011;21895;47.072;15.132;2024-03-22T05:59:53;5.33;;;1.77;;
20928;SDS011;21895;47.072;15.132;2024-03-22T06:02:23;2.13;;;1.67;;
20928;SDS011;21895;47.072;15.132;2024-03-22T06:04:50;2.80;;;1.40;;
20928;SDS011;21895;47.072;15.132;2024-03-22T06:07:16;4.87;;;1.93;;
20928;SDS011;21895;47.072;15.132;2024-03-22T06:09:43;3.60;;;1.90;;
20928;SDS011;21895;47.072;15.132;2024-03-22T06:12:12;4.70;;;2.10;;
20928;SDS011;21895;47.072;15.132;2024-03-22T06:14:42;6.17;;;2.00;;
20928;SDS011;21895;47.072;15.132;2024-03-22T06:17:09;4.33;;;2.17;;
20928;SDS011;21895;47.072;15.132;2024-03-22T06:19:36;4.87;;;1.70;;
20928;SDS011;21895;47.072;15.132;2024-03-22T06:22:03;6.30;;;1.87;;
20928;SDS011;21895;47.072;15.132;2024-03-22T06:24:32;5.87;;;1.90;;
20928;SDS011;21895;47.072;15.132;2024-03-22T06:26:58;3.93;;;2.10;;
20928;SDS011;21895;47.072;15.132;2024-03-22T06:29:25;4.97;;;2.17;;
20928;SDS011;21895;47.072;15.132;2024-03-22T06:31:52;5.40;;;2.43;;
20928;SDS011;21895;47.072;15.132;2024-03-22T06:34:19;6.70;;;1.87;;
20928;SDS011;21895;47.072;15.132;2024-03-22T06:36:45;1.57;;;1.17;;
20928;SDS011;21895;47.072;15.132;2024-03-22T06:39:13;4.00;;;1.97;;
20928;SDS011;21895;47.072;15.132;2024-03-22T06:41:40;2.70;;;1.60;;
20928;SDS011;21895;47.072;15.132;2024-03-22T06:44:06;4.43;;;1.77;;
20928;SDS011;21895;47.072;15.132;2024-03-22T06:46:34;9.97;;;1.80;;
20928;SDS011;21895;47.072;15.132;2024-03-22T06:49:01;5.67;;;1.97;;
20928;SDS011;21895;47.072;15.132;2024-03-22T06:51:27;5.27;;;2.07;;
20928;SDS011;21895;47.072;15.132;2024-03-22T06:53:54;4.07;;;1.97;;
20928;SDS011;21895;47.072;15.132;2024-03-22T06:56:21;5.70;;;2.27;;
20928;SDS011;21895;47.072;15.132;2024-03-22T06:58:47;5.73;;;1.90;;
20928;SDS011;21895;47.072;15.132;2024-03-22T07:01:14;4.33;;;1.80;;
20928;SDS011;21895;47.072;15.132;2024-03-22T07:03:41;1.93;;;1.67;;
20928;SDS011;21895;47.072;15.132;2024-03-22T07:06:11;4.10;;;1.50;;
20928;SDS011;21895;47.072;15.132;2024-03-22T07:08:37;5.27;;;1.83;;
20928;SDS011;21895;47.072;15.132;2024-03-22T07:11:07;2.77;;;1.63;;
20928;SDS011;21895;47.072;15.132;2024-03-22T07:13:34;3.67;;;1.77;;
20928;SDS011;21895;47.072;15.132;2024-03-22T07:16:01;4.20;;;1.90;;
20928;SDS011;21895;47.072;15.132;2024-03-22T07:18:29;3.70;;;1.40;;
20928;SDS011;21895;47.072;15.132;2024-03-22T07:20:55;4.63;;;2.23;;
20928;SDS011;21895;47.072;15.132;2024-03-22T07:23:23;6.93;;;1.97;;
20928;SDS011;21895;47.072;15.132;2024-03-22T07:25:50;2.80;;;1.80;;
20928;SDS011;21895;47.072;15.132;2024-03-22T07:28:16;5.93;;;2.13;;
20928;SDS011;21895;47.072;15.132;2024-03-22T07:30:43;9.77;;;2.20;;
20928;SDS011;21895;47.072;15.132;2024-03-22T07:33:10;3.67;;;1.90;;
20928;SDS011;21895;47.072;15.132;2024-03-22T07:35:42;6.30;;;1.77;;
20928;SDS011;21895;47.072;15.132;2024-03-22T07:38:09;3.00;;;1.50;;
20928;SDS011;21895;47.072;15.132;2024-03-22T07:40:36;3.67;;;1.70;;
20928;SDS011;21895;47.072;15.132;2024-03-22T07:43:03;3.67;;;1.87;;
20928;SDS011;21895;47.072;15.132;2024-03-22T07:45:32;12.83;;;2.07;;
20928;SDS011;21895;47.072;15.132;2024-03-22T07:48:02;4.40;;;2.20;;
20928;SDS011;21895;47.072;15.132;2024-03-22T07:50:30;6.53;;;2.13;;
20928;SDS011;21895;47.072;15.132;2024-03-22T07:52:56;5.57;;;2.00;;
20928;SDS011;21895;47.072;15.132;2024-03-22T07:55:23;6.67;;;2.53;;
20928;SDS011;21895;47.072;15.132;2024-03-22T07:57:50;3.87;;;2.30;;
20928;SDS011;21895;47.072;15.132;2024-03-22T08:00:17;4.13;;;2.20;;
20928;SDS011;21895;47.072;15.132;2024-03-22T08:02:44;3.05;;;1.80;;
20928;SDS011;21895;47.072;15.132;2024-03-22T08:05:10;4.55;;;1.75;;
20928;SDS011;21895;47.072;15.132;2024-03-22T08:07:37;3.78;;;2.00;;
20928;SDS011;21895;47.072;15.132;2024-03-22T08:10:04;4.22;;;2.35;;
20928;SDS011;21895;47.072;15.132;2024-03-22T08:12:31;1.80;;;1.17;;
20928;SDS011;21895;47.072;15.132;2024-03-22T08:14:57;14.65;;;1.40;;
20928;SDS011;21895;47.072;15.132;2024-03-22T08:17:24;5.22;;;1.80;;
20928;SDS011;21895;47.072;15.132;2024-03-22T08:19:50;5.50;;;1.58;;
20928;SDS011;21895;47.072;15.132;2024-03-22T08:22:17;2.67;;;1.52;;
20928;SDS011;21895;47.072;15.132;2024-03-22T08:24:44;2.08;;;1.52;;
20928;SDS011;21895;47.072;15.132;2024-03-22T08:27:10;3.20;;;1.45;;
20928;SDS011;21895;47.072;15.132;2024-03-22T08:29:37;2.40;;;1.40;;
20928;SDS011;21895;47.072;15.132;2024-03-22T08:32:06;3.17;;;1.52;;
20928;SDS011;21895;47.072;15.132;2024-03-22T08:34:33;2.62;;;1.62;;
20928;SDS011;21895;47.072;15.132;2024-03-22T08:36:59;7.87;;;1.45;;
20928;SDS011;21895;47.072;15.132;2024-03-22T08:39:26;9.52;;;1.23;;
20928;SDS011;21895;47.072;15.132;2024-03-22T08:41:52;2.12;;;1.25;;
20928;SDS011;21895;47.072;15.132;2024-03-22T08:44:20;2.67;;;1.33;;
20928;SDS011;21895;47.072;15.132;2024-03-22T08:46:47;2.17;;;1.35;;
20928;SDS011;21895;47.072;15.132;2024-03-22T08:49:15;1.20;;;1.10;;
20928;SDS011;21895;47.072;15.132;2024-03-22T08:51:45;3.40;;;1.27;;
20928;SDS011;21895;47.072;15.132;2024-03-22T08:54:14;4.03;;;1.25;;
20928;SDS011;21895;47.072;15.132;2024-03-22T08:56:41;6.72;;;1.65;;
20928;SDS011;21895;47.072;15.132;2024-03-22T08:59:07;4.75;;;1.80;;
20928;SDS011;21895;47.072;15.132;2024-03-22T09:01:34;1.35;;;1.08;;
20928;SDS011;21895;47.072;15.132;2024-03-22T09:04:01;3.10;;;1.10;;
20928;SDS011;21895;47.072;15.132;2024-03-22T09:06:28;9.68;;;1.00;;
20928;SDS011;21895;47.072;15.132;2024-03-22T09:08:55;1.60;;;1.20;;
20928;SDS011;21895;47.072;15.132;2024-03-22T09:11:26;3.05;;;1.23;;
20928;SDS011;21895;47.072;15.132;2024-03-22T09:13:52;2.70;;;1.33;;
20928;SDS011;21895;47.072;15.132;2024-03-22T09:16:20;1.70;;;1.12;;
20928;SDS011;21895;47.072;15.132;2024-03-22T09:18:46;1.67;;;1.00;;
20928;SDS011;21895;47.072;15.132;2024-03-22T09:21:13;2.95;;;1.65;;
20928;SDS011;21895;47.072;15.132;2024-03-22T09:23:40;5.00;;;1.40;;
20928;SDS011;21895;47.072;15.132;2024-03-22T09:26:06;6.32;;;1.20;;
20928;SDS011;21895;47.072;15.132;2024-03-22T09:28:33;3.03;;;0.90;;
20928;SDS011;21895;47.072;15.132;2024-03-22T09:31:06;1.42;;;1.00;;
20928;SDS011;21895;47.072;15.132;2024-03-22T09:33:33;1.95;;;1.00;;
20928;SDS011;21895;47.072;15.132;2024-03-22T09:36:01;1.67;;;1.25;;
20928;SDS011;21895;47.072;15.132;2024-03-22T09:38:28;2.10;;;1.05;;
20928;SDS011;21895;47.072;15.132;2024-03-22T09:40:55;4.15;;;1.30;;
20928;SDS011;21895;47.072;15.132;2024-03-22T09:43:22;17.37;;;1.60;;
20928;SDS011;21895;47.072;15.132;2024-03-22T09:45:49;1.75;;;0.90;;
20928;SDS011;21895;47.072;15.132;2024-03-22T09:48:19;4.28;;;1.20;;
20928;SDS011;21895;47.072;15.132;2024-03-22T09:50:46;1.70;;;0.90;;
20928;SDS011;21895;47.072;15.132;2024-03-22T09:53:13;1.15;;;0.90;;
20928;SDS011;21895;47.072;15.132;2024-03-22T09:55:46;2.37;;;1.45;;
20928;SDS011;21895;47.072;15.132;2024-03-22T09:58:15;2.10;;;1.10;;
20928;SDS011;21895;47.072;15.132;2024-03-22T10:03:21;1.77;;;1.05;;
20928;SDS011;21895;47.072;15.132;2024-03-22T10:05:47;3.70;;;1.42;;
20928;SDS011;21895;47.072;15.132;2024-03-22T10:08:14;3.15;;;1.37;;
20928;SDS011;21895;47.072;15.132;2024-03-22T10:10:41;2.25;;;1.10;;
20928;SDS011;21895;47.072;15.132;2024-03-22T10:13:08;3.17;;;1.05;;
20928;SDS011;21895;47.072;15.132;2024-03-22T10:15:34;1.52;;;0.90;;
20928;SDS011;21895;47.072;15.132;2024-03-22T10:18:01;1.60;;;1.10;;
20928;SDS011;21895;47.072;15.132;2024-03-22T10:20:29;2.20;;;1.20;;
20928;SDS011;21895;47.072;15.132;2024-03-22T10:22:56;1.08;;;0.98;;
20928;SDS011;21895;47.072;15.132;2024-03-22T10:25:27;3.30;;;1.25;;
20928;SDS011;21895;47.072;15.132;2024-03-22T10:27:55;3.72;;;0.90;;
20928;SDS011;21895;47.072;15.132;2024-03-22T10:30:24;3.40;;;1.20;;
20928;SDS011;21895;47.072;15.132;2024-03-22T10:32:51;3.47;;;1.08;;
20928;SDS011;21895;47.072;15.132;2024-03-22T10:35:18;0.98;;;0.85;;
20928;SDS011;21895;47.072;15.132;2024-03-22T10:37:44;2.17;;;1.10;;
20928;SDS011;21895;47.072;15.132;2024-03-22T10:40:16;1.73;;;1.05;;
20928;SDS011;21895;47.072;15.132;2024-03-22T10:42:43;2.17;;;1.20;;
20928;SDS011;21895;47.072;15.132;2024-03-22T10:45:10;1.62;;;1.12;;
20928;SDS011;21895;47.072;15.132;2024-03-22T10:47:38;1.77;;;1.15;;
20928;SDS011;21895;47.072;15.132;2024-03-22T10:50:09;6.95;;;1.12;;
20928;SDS011;21895;47.072;15.132;2024-03-22T10:52:38;2.35;;;1.00;;
20928;SDS011;21895;47.072;15.132;2024-03-22T10:55:20;3.40;;;1.27;;
20928;SDS011;21895;47.072;15.132;2024-03-22T10:57:58;2.30;;;1.10;;
20928;SDS011;21895;47.072;15.132;2024-03-22T11:00:32;1.98;;;1.12;;
20928;SDS011;21895;47.072;15.132;2024-03-22T11:03:03;1.48;;;0.90;;
20928;SDS011;21895;47.072;15.132;2024-03-22T11:05:30;2.47;;;1.20;;
20928;SDS011;21895;47.072;15.132;2024-03-22T11:08:04;1.25;;;0.90;;
20928;SDS011;21895;47.072;15.132;2024-03-22T11:10:34;2.17;;;1.33;;
20928;SDS011;21895;47.072;15.132;2024-03-22T11:13:01;5.18;;;0.90;;
20928;SDS011;21895;47.072;15.132;2024-03-22T11:15:30;2.17;;;1.37;;
20928;SDS011;21895;47.072;15.132;2024-03-22T11:17:57;1.90;;;1.00;;
20928;SDS011;21895;47.072;15.132;2024-03-22T11:20:27;1.60;;;1.25;;
20928;SDS011;21895;47.072;15.132;2024-03-22T11:22:55;1.52;;;1.08;;
20928;SDS011;21895;47.072;15.132;2024-03-22T11:25:22;2.00;;;1.37;;
20928;SDS011;21895;47.072;15.132;2024-03-22T11:27:49;1.75;;;0.98;;
20928;SDS011;21895;47.072;15.132;2024-03-22T11:30:15;1.80;;;1.00;;
20928;SDS011;21895;47.072;15.132;2024-03-22T11:32:43;1.80;;;1.00;;
20928;SDS011;21895;47.072;15.132;2024-03-22T11:35:13;2.25;;;1.02;;
20928;SDS011;21895;47.072;15.132;2024-03-22T11:37:40;1.08;;;0.90;;
20928;SDS011;21895;47.072;15.132;2024-03-22T11:40:10;1.23;;;1.00;;
20928;SDS011;21895;47.072;15.132;2024-03-22T11:42:38;1.50;;;1.00;;
20928;SDS011;21895;47.072;15.132;2024-03-22T11:45:09;2.08;;;1.00;;
20928;SDS011;21895;47.072;15.132;2024-03-22T11:47:39;1.77;;;1.10;;
20928;SDS011;21895;47.072;15.132;2024-03-22T11:50:06;1.83;;;1.05;;
20928;SDS011;21895;47.072;15.132;2024-03-22T11:52:34;1.77;;;1.20;;
20928;SDS011;21895;47.072;15.132;2024-03-22T11:55:02;4.03;;;1.05;;
20928;SDS011;21895;47.072;15.132;2024-03-22T11:57:30;1.95;;;1.10;;
20928;SDS011;21895;47.072;15.132;2024-03-22T12:00:00;2.60;;;1.33;;
20928;SDS011;21895;47.072;15.132;2024-03-22T12:02:49;1.45;;;1.00;;
20928;SDS011;21895;47.072;15.132;2024-03-22T12:05:17;2.12;;;1.45;;
20928;SDS011;21895;47.072;15.132;2024-03-22T12:07:44;1.35;;;1.10;;
20928;SDS011;21895;47.072;15.132;2024-03-22T12:10:10;1.45;;;1.20;;
20928;SDS011;21895;47.072;15.132;2024-03-22T12:12:37;2.70;;;1.27;;
20928;SDS011;21895;47.072;15.132;2024-03-22T12:15:04;2.15;;;1.30;;
20928;SDS011;21895;47.072;15.132;2024-03-22T12:17:31;1.92;;;1.40;;
20928;SDS011;21895;47.072;15.132;2024-03-22T12:19:59;1.33;;;1.23;;
20928;SDS011;21895;47.072;15.132;2024-03-22T12:22:25;1.92;;;1.27;;
20928;SDS011;21895;47.072;15.132;2024-03-22T12:24:52;1.55;;;1.40;;
20928;SDS011;21895;47.072;15.132;2024-03-22T12:27:18;2.90;;;1.20;;
20928;SDS011;21895;47.072;15.132;2024-03-22T12:29:47;1.37;;;1.20;;
20928;SDS011;21895;47.072;15.132;2024-03-22T12:32:14;1.15;;;1.05;;
20928;SDS011;21895;47.072;15.132;2024-03-22T12:34:40;2.22;;;1.30;;
20928;SDS011;21895;47.072;15.132;2024-03-22T12:37:07;1.20;;;0.93;;
20928;SDS011;21895;47.072;15.132;2024-03-22T12:39:34;2.33;;;1.42;;
20928;SDS011;21895;47.072;15.132;2024-03-22T12:42:01;4.87;;;1.10;;
20928;SDS011;21895;47.072;15.132;2024-03-22T12:44:28;1.87;;;1.08;;
20928;SDS011;21895;47.072;15.132;2024-03-22T12:46:54;2.03;;;1.60;;
20928;SDS011;21895;47.072;15.132;2024-03-22T12:49:21;2.58;;;1.50;;
20928;SDS011;21895;47.072;15.132;2024-03-22T12:51:48;1.33;;;1.05;;
20928;SDS011;21895;47.072;15.132;2024-03-22T12:54:15;1.42;;;1.20;;
20928;SDS011;21895;47.072;15.132;2024-03-22T12:56:44;1.90;;;1.10;;
20928;SDS011;21895;47.072;15.132;2024-03-22T12:59:11;2.70;;;1.12;;
20928;SDS011;21895;47.072;15.132;2024-03-22T13:01:38;1.95;;;1.17;;
20928;SDS011;21895;47.072;15.132;2024-03-22T13:04:05;3.20;;;1.55;;
20928;SDS011;21895;47.072;15.132;2024-03-22T13:06:32;2.35;;;1.30;;
20928;SDS011;21895;47.072;15.132;2024-03-22T13:09:00;2.45;;;1.55;;
20928;SDS011;21895;47.072;15.132;2024-03-22T13:11:30;2.42;;;1.20;;
20928;SDS011;21895;47.072;15.132;2024-03-22T13:14:00;1.52;;;1.17;;
20928;SDS011;21895;47.072;15.132;2024-03-22T13:16:26;4.43;;;1.17;;
20928;SDS011;21895;47.072;15.132;2024-03-22T13:18:53;3.80;;;1.23;;
20928;SDS011;21895;47.072;15.132;2024-03-22T13:21:19;1.30;;;1.20;;
20928;SDS011;21895;47.072;15.132;2024-03-22T13:23:46;2.00;;;1.00;;
20928;SDS011;21895;47.072;15.132;2024-03-22T13:26:13;2.12;;;1.15;;
20928;SDS011;21895;47.072;15.132;2024-03-22T13:28:39;1.90;;;1.10;;
20928;SDS011;21895;47.072;15.132;2024-03-22T13:31:09;2.00;;;1.27;;
20928;SDS011;21895;47.072;15.132;2024-03-22T13:33:36;2.90;;;1.15;;
20928;SDS011;21895;47.072;15.132;2024-03-22T13:36:02;4.00;;;1.00;;
20928;SDS011;21895;47.072;15.132;2024-03-22T13:38:30;1.60;;;1.20;;
20928;SDS011;21895;47.072;15.132;2024-03-22T13:40:57;3.05;;;1.20;;
20928;SDS011;21895;47.072;15.132;2024-03-22T13:43:28;1.17;;;1.00;;
20928;SDS011;21895;47.072;15.132;2024-03-22T13:45:55;1.60;;;1.08;;
20928;SDS011;21895;47.072;15.132;2024-03-22T13:48:23;2.47;;;1.37;;
20928;SDS011;21895;47.072;15.132;2024-03-22T13:50:51;1.75;;;1.35;;
20928;SDS011;21895;47.072;15.132;2024-03-22T13:53:21;2.75;;;1.10;;
20928;SDS011;21895;47.072;15.132;2024-03-22T13:55:48;1.55;;;1.00;;
20928;SDS011;21895;47.072;15.132;2024-03-22T13:58:18;6.37;;;1.10;;
20928;SDS011;21895;47.072;15.132;2024-03-22T14:00:45;2.22;;;1.00;;
20928;SDS011;21895;47.072;15.132;2024-03-22T14:03:11;1.65;;;1.00;;
20928;SDS011;21895;47.072;15.132;2024-03-22T14:05:38;1.52;;;1.15;;
20928;SDS011;21895;47.072;15.132;2024-03-22T14:08:05;2.95;;;1.10;;
20928;SDS011;21895;47.072;15.132;2024-03-22T14:10:32;2.00;;;1.10;;
20928;SDS011;21895;47.072;15.132;2024-03-22T14:12:58;1.42;;;1.08;;
20928;SDS011;21895;47.072;15.132;2024-03-22T14:15:25;1.98;;;1.25;;
20928;SDS011;21895;47.072;15.132;2024-03-22T14:17:54;2.85;;;1.55;;
20928;SDS011;21895;47.072;15.132;2024-03-22T14:20:21;3.12;;;1.30;;
20928;SDS011;21895;47.072;15.132;2024-03-22T14:22:47;2.65;;;1.08;;
20928;SDS011;21895;47.072;15.132;2024-03-22T14:25:14;1.98;;;1.20;;
20928;SDS011;21895;47.072;15.132;2024-03-22T14:27:41;2.45;;;1.30;;
20928;SDS011;21895;47.072;15.132;2024-03-22T14:30:11;2.50;;;1.58;;
20928;SDS011;21895;47.072;15.132;2024-03-22T14:32:40;1.92;;;1.20;;
20928;SDS011;21895;47.072;15.132;2024-03-22T14:35:07;2.58;;;1.40;;
20928;SDS011;21895;47.072;15.132;2024-03-22T14:37:38;9.05;;;1.40;;